createdAt,value
2019-04-01T00:00:12.356Z,0.00
2019-04-01T00:01:12.350Z,0.00
2019-04-01T00:02:12.345Z,0.00
2019-04-01T00:03:12.332Z,0.00
2019-04-01T00:04:12.335Z,0.00
2019-04-01T00:05:12.299Z,0.00
2019-04-01T00:06:12.291Z,0.00
2019-04-01T00:07:12.280Z,0.00
2019-04-01T00:08:12.264Z,0.00
2019-04-01T00:09:12.283Z,0.00
2019-04-01T00:10:12.249Z,0.00
2019-04-01T00:11:12.257Z,0.00
2019-04-01T00:12:12.226Z,0.00
2019-04-01T00:13:12.212Z,0.00
2019-04-01T00:14:12.653Z,0.00
2019-04-01T00:15:12.196Z,0.00
2019-04-01T00:16:12.185Z,0.00
2019-04-01T00:17:12.165Z,0.00
2019-04-01T00:18:12.165Z,0.00
2019-04-01T00:19:12.145Z,0.00
2019-04-01T00:20:12.164Z,0.00
2019-04-01T00:21:12.141Z,0.00
2019-04-01T00:22:12.119Z,0.00
2019-04-01T00:23:12.163Z,0.00
2019-04-01T00:24:12.096Z,0.00
2019-04-01T00:25:12.106Z,0.00
2019-04-01T00:26:12.101Z,0.00
2019-04-01T00:27:12.084Z,0.00
2019-04-01T00:28:12.052Z,0.00
2019-04-01T00:29:12.044Z,0.00
2019-04-01T00:30:12.031Z,0.00
2019-04-01T00:31:12.015Z,0.00
2019-04-01T00:32:12.031Z,0.00
2019-04-01T00:33:12.002Z,0.00
2019-04-01T00:34:11.993Z,0.00
2019-04-01T00:35:11.983Z,0.00
2019-04-01T00:36:11.975Z,0.00
2019-04-01T00:37:11.976Z,0.00
2019-04-01T00:38:11.943Z,0.00
2019-04-01T00:39:11.929Z,0.00
2019-04-01T00:40:11.928Z,0.00
2019-04-01T00:41:11.916Z,0.00
2019-04-01T00:42:11.938Z,0.00
2019-04-01T00:43:11.890Z,0.00
2019-04-01T00:44:11.885Z,0.00
2019-04-01T00:45:11.863Z,0.00
2019-04-01T00:46:11.851Z,0.00
2019-04-01T00:47:11.873Z,0.00
2019-04-01T00:48:11.838Z,0.00
2019-04-01T00:49:11.822Z,0.00
2019-04-01T00:50:11.807Z,0.00
2019-04-01T00:51:11.798Z,0.00
2019-04-01T00:52:11.814Z,0.00
2019-04-01T00:53:11.866Z,0.00
2019-04-01T00:54:11.774Z,0.00
2019-04-01T00:55:11.760Z,0.00
2019-04-01T00:56:21.659Z,0.00
2019-04-01T00:57:19.821Z,0.00
2019-04-01T00:58:11.758Z,0.00
2019-04-01T00:59:11.709Z,0.00
2019-04-01T01:00:20.737Z,0.00
2019-04-01T01:01:20.272Z,0.00
2019-04-01T01:02:20.299Z,0.00
2019-04-01T01:03:19.754Z,0.00
2019-04-01T01:04:20.867Z,0.00
2019-04-01T01:05:11.652Z,0.00
2019-04-01T01:06:11.639Z,0.00
2019-04-01T01:07:11.626Z,0.00
2019-04-01T01:08:11.616Z,0.00
2019-04-01T01:09:11.626Z,0.00
2019-04-01T01:10:11.596Z,0.00
2019-04-01T01:11:11.587Z,0.00
2019-04-01T01:12:11.604Z,0.00
2019-04-01T01:13:11.591Z,0.00
2019-04-01T01:14:11.576Z,0.00
2019-04-01T01:15:11.538Z,0.00
2019-04-01T01:16:11.533Z,0.00
2019-04-01T01:17:11.513Z,0.00
2019-04-01T01:18:11.501Z,0.00
2019-04-01T01:19:11.518Z,0.00
2019-04-01T01:20:11.489Z,0.00
2019-04-01T01:21:11.470Z,0.00
2019-04-01T01:22:11.463Z,0.00
2019-04-01T01:23:11.451Z,0.00
2019-04-01T01:24:11.554Z,0.00
2019-04-01T01:25:11.438Z,0.00
2019-04-01T01:26:11.435Z,0.00
2019-04-01T01:27:11.404Z,0.00
2019-04-01T01:28:11.396Z,0.00
2019-04-01T01:29:11.381Z,0.00
2019-04-01T01:30:11.396Z,0.00
2019-04-01T01:31:11.373Z,0.00
2019-04-01T01:32:11.358Z,0.00
2019-04-01T01:33:11.345Z,0.00
2019-04-01T01:34:11.338Z,0.00
2019-04-01T01:35:11.351Z,0.00
2019-04-01T01:36:11.310Z,0.00
2019-04-01T01:37:11.303Z,0.00
2019-04-01T01:38:11.291Z,0.00
2019-04-01T01:39:11.276Z,0.00
2019-04-01T01:40:11.368Z,0.00
2019-04-01T01:41:11.252Z,0.00
2019-04-01T01:42:11.239Z,0.00
2019-04-01T01:43:11.233Z,0.00
2019-04-01T01:44:11.234Z,0.00
2019-04-01T01:45:11.245Z,0.00
2019-04-01T01:46:11.203Z,0.00
2019-04-01T01:47:11.185Z,0.00
2019-04-01T01:48:11.179Z,0.00
2019-04-01T01:49:11.160Z,0.00
2019-04-01T01:50:11.153Z,0.00
2019-04-01T01:51:11.178Z,0.00
2019-04-01T01:52:11.154Z,0.00
2019-04-01T01:53:11.119Z,0.00
2019-04-01T01:54:11.109Z,0.00
2019-04-01T01:55:11.109Z,0.00
2019-04-01T01:56:11.109Z,0.00
2019-04-01T01:57:11.103Z,0.00
2019-04-01T01:58:11.069Z,0.00
2019-04-01T01:59:11.052Z,0.00
2019-04-01T02:00:11.044Z,0.00
2019-04-01T02:01:11.032Z,0.00
2019-04-01T02:02:11.045Z,0.00
2019-04-01T02:03:11.020Z,0.00
2019-04-01T02:04:11.005Z,0.00
2019-04-01T02:05:10.994Z,0.00
2019-04-01T02:06:10.986Z,0.00
2019-04-01T02:07:10.997Z,0.00
2019-04-01T02:08:10.951Z,0.00
2019-04-01T02:09:10.947Z,0.00
2019-04-01T02:10:10.957Z,0.00
2019-04-01T02:11:10.924Z,0.00
2019-04-01T02:12:10.911Z,0.00
2019-04-01T02:13:10.920Z,0.00
2019-04-01T02:14:10.949Z,0.00
2019-04-01T02:15:10.885Z,0.00
2019-04-01T02:16:10.876Z,0.00
2019-04-01T02:17:10.873Z,0.00
2019-04-01T02:18:10.889Z,0.00
2019-04-01T02:19:10.857Z,0.00
2019-04-01T02:20:10.826Z,0.00
2019-04-01T02:21:10.815Z,0.00
2019-04-01T02:22:10.804Z,0.00
2019-04-01T02:23:10.815Z,0.00
2019-04-01T02:24:10.784Z,0.00
2019-04-01T02:25:10.767Z,0.00
2019-04-01T02:26:10.759Z,0.00
2019-04-01T02:27:10.751Z,0.00
2019-04-01T02:28:10.761Z,0.00
2019-04-01T02:29:10.750Z,0.00
2019-04-01T02:30:10.717Z,0.00
2019-04-01T02:31:10.704Z,0.00
2019-04-01T02:32:10.700Z,0.00
2019-04-01T02:33:10.683Z,0.00
2019-04-01T02:34:10.693Z,0.00
2019-04-01T02:35:10.666Z,0.00
2019-04-01T02:36:10.658Z,0.00
2019-04-01T02:37:10.642Z,0.00
2019-04-01T02:38:10.680Z,0.00
2019-04-01T02:39:10.637Z,0.00
2019-04-01T02:40:10.638Z,0.00
2019-04-01T02:41:10.629Z,0.00
2019-04-01T02:42:10.588Z,0.00
2019-04-01T02:43:10.570Z,0.00
2019-04-01T02:44:10.590Z,0.00
2019-04-01T02:45:10.713Z,0.00
2019-04-01T02:46:10.539Z,0.00
2019-04-01T02:47:10.531Z,0.00
2019-04-01T02:48:10.558Z,0.00
2019-04-01T02:49:10.510Z,0.00
2019-04-01T02:50:10.551Z,0.00
2019-04-01T02:51:10.486Z,0.00
2019-04-01T02:52:10.474Z,0.00
2019-04-01T02:53:10.462Z,0.00
2019-04-01T02:54:10.466Z,0.00
2019-04-01T02:55:10.451Z,0.00
2019-04-01T02:56:10.470Z,0.00
2019-04-01T02:57:10.424Z,0.00
2019-04-01T02:58:10.420Z,0.00
2019-04-01T02:59:19.465Z,0.00
2019-04-01T03:00:10.411Z,0.00
2019-04-01T03:01:10.404Z,0.00
2019-04-01T03:02:10.372Z,0.00
2019-04-01T03:03:10.362Z,0.00
2019-04-01T03:04:10.369Z,0.00
2019-04-01T03:05:10.354Z,0.00
2019-04-01T03:06:10.319Z,0.00
2019-04-01T03:07:10.314Z,0.00
2019-04-01T03:08:10.304Z,0.00
2019-04-01T03:09:10.294Z,0.00
2019-04-01T03:10:10.312Z,0.00
2019-04-01T03:11:11.237Z,0.00
2019-04-01T03:12:10.268Z,0.00
2019-04-01T03:13:10.257Z,0.00
2019-04-01T03:14:10.250Z,0.00
2019-04-01T03:15:10.231Z,0.00
2019-04-01T03:16:10.242Z,0.00
2019-04-01T03:17:10.208Z,0.00
2019-04-01T03:18:10.191Z,0.00
2019-04-01T03:19:10.178Z,0.00
2019-04-01T03:20:10.172Z,0.00
2019-04-01T03:21:10.188Z,0.00
2019-04-01T03:22:10.151Z,0.00
2019-04-01T03:23:10.143Z,0.00
2019-04-01T03:24:10.134Z,0.00
2019-04-01T03:25:10.123Z,0.00
2019-04-01T03:26:10.138Z,0.00
2019-04-01T03:27:10.111Z,0.00
2019-04-01T03:28:10.088Z,0.00
2019-04-01T03:29:10.078Z,0.00
2019-04-01T03:30:10.132Z,0.00
2019-04-01T03:31:10.101Z,0.00
2019-04-01T03:32:10.067Z,0.00
2019-04-01T03:33:10.052Z,0.00
2019-04-01T03:34:10.064Z,0.00
2019-04-01T03:35:10.014Z,0.00
2019-04-01T03:36:10.025Z,0.00
2019-04-01T03:37:09.987Z,0.00
2019-04-01T03:38:09.993Z,0.00
2019-04-01T03:39:09.966Z,0.00
2019-04-01T03:40:09.954Z,0.00
2019-04-01T03:41:09.969Z,0.00
2019-04-01T03:42:09.943Z,0.00
2019-04-01T03:43:09.956Z,0.00
2019-04-01T03:44:09.920Z,0.00
2019-04-01T03:45:09.908Z,0.00
2019-04-01T03:46:09.902Z,0.00
2019-04-01T03:47:09.900Z,0.00
2019-04-01T03:48:09.880Z,0.00
2019-04-01T03:49:09.888Z,0.00
2019-04-01T03:50:09.853Z,0.00
2019-04-01T03:51:09.841Z,0.00
2019-04-01T03:52:10.484Z,0.00
2019-04-01T03:53:09.825Z,0.00
2019-04-01T03:54:09.836Z,0.00
2019-04-01T03:55:09.804Z,0.00
2019-04-01T03:56:09.789Z,0.00
2019-04-01T03:57:09.773Z,0.00
2019-04-01T03:58:09.766Z,0.00
2019-04-01T03:59:09.780Z,0.00
2019-04-01T04:00:09.750Z,0.00
2019-04-01T04:01:09.764Z,0.00
2019-04-01T04:02:09.722Z,0.00
2019-04-01T04:03:09.720Z,0.00
2019-04-01T04:04:09.734Z,0.00
2019-04-01T04:05:09.707Z,0.00
2019-04-01T04:06:09.700Z,0.00
2019-04-01T04:07:09.678Z,0.00
2019-04-01T04:08:09.660Z,0.00
2019-04-01T04:09:09.644Z,0.00
2019-04-01T04:10:09.678Z,0.00
2019-04-01T04:11:09.642Z,0.00
2019-04-01T04:12:09.612Z,0.00
2019-04-01T04:13:09.609Z,0.00
2019-04-01T04:14:09.596Z,0.00
2019-04-01T04:15:09.584Z,0.00
2019-04-01T04:16:09.591Z,0.00
2019-04-01T04:17:09.566Z,0.00
2019-04-01T04:18:09.560Z,0.00
2019-04-01T04:19:09.545Z,0.00
2019-04-01T04:20:09.561Z,0.00
2019-04-01T04:21:09.518Z,0.00
2019-04-01T04:22:09.507Z,0.00
2019-04-01T04:23:09.498Z,0.00
2019-04-01T04:24:09.521Z,0.00
2019-04-01T04:25:09.488Z,0.00
2019-04-01T04:26:09.509Z,0.00
2019-04-01T04:27:11.326Z,0.00
2019-04-01T04:28:09.470Z,0.00
2019-04-01T04:29:09.439Z,0.00
2019-04-01T04:30:09.423Z,0.00
2019-04-01T04:31:09.418Z,0.00
2019-04-01T04:32:09.431Z,0.00
2019-04-01T04:33:09.390Z,0.00
2019-04-01T04:34:09.380Z,0.00
2019-04-01T04:35:09.370Z,0.00
2019-04-01T04:36:09.362Z,0.00
2019-04-01T04:37:09.401Z,0.00
2019-04-01T04:38:09.369Z,0.00
2019-04-01T04:39:09.331Z,0.00
2019-04-01T04:40:09.324Z,0.00
2019-04-01T04:41:09.330Z,0.00
2019-04-01T04:42:09.296Z,0.00
2019-04-01T04:43:09.307Z,0.00
2019-04-01T04:44:09.273Z,5.62
2019-04-01T04:45:09.270Z,5.62
2019-04-01T04:46:09.257Z,5.62
2019-04-01T04:47:09.268Z,5.62
2019-04-01T04:48:09.241Z,5.62
2019-04-01T04:49:09.235Z,5.62
2019-04-01T04:50:09.225Z,5.62
2019-04-01T04:51:09.230Z,5.62
2019-04-01T04:52:09.225Z,5.62
2019-04-01T04:53:09.180Z,5.62
2019-04-01T04:54:09.169Z,5.62
2019-04-01T04:55:09.157Z,11.25
2019-04-01T04:56:09.151Z,11.25
2019-04-01T04:57:09.144Z,11.25
2019-04-01T04:58:09.154Z,11.25
2019-04-01T04:59:09.123Z,11.25
2019-04-01T05:00:09.111Z,11.25
2019-04-01T05:01:09.095Z,11.25
2019-04-01T05:02:09.085Z,11.25
2019-04-01T05:03:09.118Z,16.88
2019-04-01T05:04:09.067Z,16.88
2019-04-01T05:05:09.052Z,16.88
2019-04-01T05:06:09.044Z,16.88
2019-04-01T05:07:09.030Z,16.88
2019-04-01T05:08:09.018Z,16.88
2019-04-01T05:09:09.033Z,16.88
2019-04-01T05:10:09.007Z,16.88
2019-04-01T05:11:08.996Z,22.50
2019-04-01T05:12:09.002Z,22.50
2019-04-01T05:13:08.996Z,22.50
2019-04-01T05:14:08.956Z,22.50
2019-04-01T05:15:08.944Z,22.50
2019-04-01T05:16:08.933Z,22.50
2019-04-01T05:17:08.927Z,22.50
2019-04-01T05:18:08.923Z,22.50
2019-04-01T05:19:08.921Z,28.12
2019-04-01T05:20:08.894Z,28.12
2019-04-01T05:21:08.886Z,28.12
2019-04-01T05:22:08.875Z,28.12
2019-04-01T05:23:08.865Z,28.12
2019-04-01T05:24:08.875Z,28.12
2019-04-01T05:25:08.838Z,28.12
2019-04-01T05:26:08.826Z,28.12
2019-04-01T05:27:08.825Z,33.75
2019-04-01T05:28:08.805Z,33.75
2019-04-01T05:29:08.818Z,33.75
2019-04-01T05:30:08.789Z,33.75
2019-04-01T05:31:08.779Z,33.75
2019-04-01T05:32:08.768Z,33.75
2019-04-01T05:33:08.750Z,33.75
2019-04-01T05:34:08.773Z,33.75
2019-04-01T05:35:08.814Z,39.38
2019-04-01T05:36:08.724Z,39.38
2019-04-01T05:37:09.190Z,39.38
2019-04-01T05:38:08.701Z,39.38
2019-04-01T05:39:08.687Z,39.38
2019-04-01T05:40:08.719Z,39.38
2019-04-01T05:41:08.675Z,39.38
2019-04-01T05:42:08.662Z,39.38
2019-04-01T05:43:08.664Z,45.00
2019-04-01T05:44:08.644Z,45.00
2019-04-01T05:45:08.649Z,45.00
2019-04-01T05:46:08.635Z,45.00
2019-04-01T05:47:08.605Z,45.00
2019-04-01T05:48:08.646Z,45.00
2019-04-01T05:49:08.585Z,45.00
2019-04-01T05:50:08.608Z,45.00
2019-04-01T05:51:08.559Z,45.00
2019-04-01T05:52:08.555Z,50.62
2019-04-01T05:53:08.543Z,50.62
2019-04-01T05:54:08.532Z,50.62
2019-04-01T05:55:09.096Z,50.62
2019-04-01T05:56:08.510Z,50.62
2019-04-01T05:57:08.501Z,50.62
2019-04-01T05:58:08.481Z,50.62
2019-04-01T05:59:08.478Z,50.62
2019-04-01T06:00:08.493Z,50.62
2019-04-01T06:01:08.484Z,56.25
2019-04-01T06:02:08.445Z,56.25
2019-04-01T06:03:08.429Z,56.25
2019-04-01T06:04:08.423Z,56.25
2019-04-01T06:05:08.431Z,56.25
2019-04-01T06:06:08.422Z,56.25
2019-04-01T06:07:08.396Z,56.25
2019-04-01T06:08:08.375Z,56.25
2019-04-01T06:09:08.399Z,61.88
2019-04-01T06:10:08.361Z,61.88
2019-04-01T06:11:08.406Z,61.88
2019-04-01T06:12:08.336Z,61.88
2019-04-01T06:13:08.325Z,61.88
2019-04-01T06:14:08.308Z,67.50
2019-04-01T06:15:08.302Z,67.50
2019-04-01T06:16:08.289Z,67.50
2019-04-01T06:17:08.304Z,67.50
2019-04-01T06:18:08.274Z,67.50
2019-04-01T06:19:08.259Z,73.12
2019-04-01T06:20:08.257Z,73.12
2019-04-01T06:21:08.231Z,73.12
2019-04-01T06:22:08.245Z,73.12
2019-04-01T06:23:08.222Z,73.12
2019-04-01T06:24:08.204Z,73.12
2019-04-01T06:25:08.197Z,78.75
2019-04-01T06:26:08.180Z,78.75
2019-04-01T06:27:08.186Z,78.75
2019-04-01T06:28:08.156Z,78.75
2019-04-01T06:29:08.150Z,78.75
2019-04-01T06:30:08.159Z,78.75
2019-04-01T06:31:08.128Z,84.38
2019-04-01T06:32:09.016Z,84.38
2019-04-01T06:33:08.136Z,84.38
2019-04-01T06:34:08.110Z,84.38
2019-04-01T06:35:08.078Z,84.38
2019-04-01T06:36:08.067Z,90.00
2019-04-01T06:37:08.062Z,90.00
2019-04-01T06:38:08.072Z,90.00
2019-04-01T06:39:08.034Z,90.00
2019-04-01T06:40:08.075Z,90.00
2019-04-01T06:41:08.022Z,90.00
2019-04-01T06:42:08.022Z,95.62
2019-04-01T06:43:08.027Z,95.62
2019-04-01T06:44:07.985Z,95.62
2019-04-01T06:45:07.974Z,95.62
2019-04-01T06:46:07.958Z,101.25
2019-04-01T06:47:07.954Z,101.25
2019-04-01T06:48:07.950Z,101.25
2019-04-01T06:49:07.954Z,101.25
2019-04-01T06:50:07.940Z,101.25
2019-04-01T06:51:07.913Z,101.25
2019-04-01T06:52:07.900Z,106.88
2019-04-01T06:53:07.907Z,101.25
2019-04-01T06:54:07.897Z,101.25
2019-04-01T06:55:07.874Z,106.88
2019-04-01T06:56:07.857Z,106.88
2019-04-01T06:57:07.858Z,106.88
2019-04-01T06:58:07.832Z,106.88
2019-04-01T06:59:07.839Z,112.50
2019-04-01T07:00:07.811Z,112.50
2019-04-01T07:01:07.817Z,112.50
2019-04-01T07:02:07.792Z,118.12
2019-04-01T07:03:07.779Z,118.12
2019-04-01T07:04:07.800Z,123.75
2019-04-01T07:05:07.755Z,123.75
2019-04-01T07:06:07.744Z,123.75
2019-04-01T07:07:18.917Z,123.75
2019-04-01T07:08:08.719Z,129.38
2019-04-01T07:09:07.721Z,129.38
2019-04-01T07:10:07.730Z,129.38
2019-04-01T07:11:07.690Z,135.00
2019-04-01T07:12:07.681Z,135.00
2019-04-01T07:13:07.673Z,135.00
2019-04-01T07:14:07.664Z,140.62
2019-04-01T07:15:07.687Z,140.62
2019-04-01T07:16:15.440Z,140.62
2019-04-01T07:17:08.628Z,146.25
2019-04-01T07:18:07.614Z,146.25
2019-04-01T07:19:07.603Z,146.25
2019-04-01T07:20:08.967Z,151.88
2019-04-01T07:21:07.610Z,151.88
2019-04-01T07:22:07.578Z,151.88
2019-04-01T07:23:07.569Z,157.50
2019-04-01T07:24:07.572Z,157.50
2019-04-01T07:25:07.538Z,157.50
2019-04-01T07:26:07.547Z,163.12
2019-04-01T07:27:08.213Z,163.12
2019-04-01T07:28:07.513Z,168.75
2019-04-01T07:29:07.497Z,168.75
2019-04-01T07:30:07.499Z,168.75
2019-04-01T07:31:07.495Z,174.38
2019-04-01T07:32:07.464Z,168.75
2019-04-01T07:33:07.503Z,168.75
2019-04-01T07:34:07.467Z,174.38
2019-04-01T07:35:07.437Z,174.38
2019-04-01T07:36:07.426Z,174.38
2019-04-01T07:37:07.446Z,174.38
2019-04-01T07:38:07.399Z,180.00
2019-04-01T07:39:07.398Z,180.00
2019-04-01T07:40:07.379Z,185.62
2019-04-01T07:41:07.374Z,185.62
2019-04-01T07:42:07.360Z,191.25
2019-04-01T07:43:07.366Z,191.25
2019-04-01T07:44:07.356Z,191.25
2019-04-01T07:45:07.328Z,196.88
2019-04-01T07:46:08.238Z,196.88
2019-04-01T07:47:07.305Z,196.88
2019-04-01T07:48:07.311Z,202.50
2019-04-01T07:49:07.299Z,202.50
2019-04-01T07:50:07.346Z,208.12
2019-04-01T07:51:07.507Z,208.12
2019-04-01T07:52:07.255Z,208.12
2019-04-01T07:53:07.266Z,213.75
2019-04-01T07:54:07.233Z,213.75
2019-04-01T07:55:07.219Z,213.75
2019-04-01T07:56:07.213Z,219.38
2019-04-01T07:57:07.253Z,219.38
2019-04-01T07:58:07.213Z,225.00
2019-04-01T07:59:07.176Z,225.00
2019-04-01T08:00:07.167Z,230.62
2019-04-01T08:01:07.148Z,236.25
2019-04-01T08:02:07.148Z,236.25
2019-04-01T08:03:07.129Z,241.88
2019-04-01T08:04:07.141Z,247.50
2019-04-01T08:05:07.110Z,241.88
2019-04-01T08:06:07.121Z,241.88
2019-04-01T08:07:07.090Z,247.50
2019-04-01T08:08:07.080Z,247.50
2019-04-01T08:09:07.084Z,253.12
2019-04-01T08:10:07.066Z,258.75
2019-04-01T08:11:07.061Z,258.75
2019-04-01T08:12:07.102Z,264.38
2019-04-01T08:13:07.030Z,270.00
2019-04-01T08:14:07.016Z,270.00
2019-04-01T08:15:07.026Z,275.62
2019-04-01T08:16:06.990Z,275.62
2019-04-01T08:17:07.015Z,281.25
2019-04-01T08:18:06.972Z,286.88
2019-04-01T08:19:06.962Z,286.88
2019-04-01T08:20:06.951Z,292.50
2019-04-01T08:21:06.933Z,298.12
2019-04-01T08:22:06.924Z,298.12
2019-04-01T08:23:06.940Z,303.75
2019-04-01T08:24:06.898Z,309.38
2019-04-01T08:25:06.892Z,309.38
2019-04-01T08:26:06.907Z,309.38
2019-04-01T08:27:07.440Z,315.00
2019-04-01T08:28:06.888Z,320.62
2019-04-01T08:29:06.843Z,320.62
2019-04-01T08:30:06.866Z,326.25
2019-04-01T08:31:06.827Z,331.88
2019-04-01T08:32:06.817Z,337.50
2019-04-01T08:33:06.802Z,343.12
2019-04-01T08:34:06.802Z,348.75
2019-04-01T08:35:06.780Z,360.00
2019-04-01T08:36:06.789Z,371.25
2019-04-01T08:37:06.768Z,382.50
2019-04-01T08:38:06.832Z,388.12
2019-04-01T08:39:06.751Z,399.38
2019-04-01T08:40:06.732Z,416.25
2019-04-01T08:41:06.736Z,438.75
2019-04-01T08:42:06.703Z,455.62
2019-04-01T08:43:06.694Z,478.12
2019-04-01T08:44:06.685Z,511.88
2019-04-01T08:45:06.682Z,545.62
2019-04-01T08:46:06.685Z,590.62
2019-04-01T08:47:06.650Z,646.88
2019-04-01T08:48:06.640Z,736.88
2019-04-01T08:49:08.056Z,843.75
2019-04-01T08:50:06.646Z,1237.50
2019-04-01T08:51:06.612Z,2098.12
2019-04-01T08:52:06.601Z,2823.75
2019-04-01T08:53:06.586Z,2874.38
2019-04-01T08:54:06.571Z,2835.00
2019-04-01T08:55:06.581Z,2857.50
2019-04-01T08:56:06.550Z,2925.00
2019-04-01T08:57:06.547Z,3003.75
2019-04-01T08:58:06.574Z,2885.62
2019-04-01T08:59:06.535Z,2846.25
2019-04-01T09:00:06.531Z,2975.62
2019-04-01T09:01:06.499Z,3200.62
2019-04-01T09:02:17.090Z,3195.00
2019-04-01T09:03:07.507Z,3093.75
2019-04-01T09:04:06.485Z,3031.88
2019-04-01T09:05:06.453Z,3048.75
2019-04-01T09:06:06.607Z,3076.88
2019-04-01T09:07:06.494Z,3048.75
2019-04-01T09:08:06.426Z,3206.25
2019-04-01T09:09:06.423Z,3318.75
2019-04-01T09:10:06.412Z,3301.88
2019-04-01T09:11:06.399Z,3200.62
2019-04-01T09:12:06.389Z,3217.50
2019-04-01T09:13:06.394Z,3251.25
2019-04-01T09:14:06.363Z,3223.12
2019-04-01T09:15:06.360Z,3206.25
2019-04-01T09:16:06.342Z,3262.50
2019-04-01T09:17:06.345Z,3211.88
2019-04-01T09:18:06.352Z,3116.25
2019-04-01T09:19:06.314Z,3206.25
2019-04-01T09:20:06.310Z,3251.25
2019-04-01T09:21:06.300Z,3211.88
2019-04-01T09:22:06.287Z,3150.00
2019-04-01T09:23:06.310Z,3121.88
2019-04-01T09:24:06.273Z,3301.88
2019-04-01T09:25:06.259Z,3380.62
2019-04-01T09:26:06.246Z,3296.25
2019-04-01T09:27:06.240Z,3380.62
2019-04-01T09:28:06.229Z,3358.12
2019-04-01T09:29:06.248Z,3245.62
2019-04-01T09:30:06.241Z,3369.38
2019-04-01T09:31:06.207Z,3526.88
2019-04-01T09:32:06.200Z,3616.88
2019-04-01T09:33:06.180Z,3712.50
2019-04-01T09:34:06.206Z,3751.88
2019-04-01T09:35:06.185Z,3712.50
2019-04-01T09:36:06.164Z,3622.50
2019-04-01T09:37:06.145Z,3600.00
2019-04-01T09:38:06.134Z,3678.75
2019-04-01T09:39:06.139Z,3673.12
2019-04-01T09:40:06.139Z,3498.75
2019-04-01T09:41:06.117Z,3611.25
2019-04-01T09:42:06.103Z,3633.75
2019-04-01T09:43:06.099Z,3211.88
2019-04-01T09:44:06.087Z,2846.25
2019-04-01T09:45:06.101Z,3178.12
2019-04-01T09:46:06.057Z,3346.88
2019-04-01T09:47:06.052Z,3391.88
2019-04-01T09:48:06.044Z,3363.75
2019-04-01T09:49:06.078Z,3335.62
2019-04-01T09:50:06.029Z,3313.12
2019-04-01T09:51:06.042Z,3178.12
2019-04-01T09:52:06.005Z,3358.12
2019-04-01T09:53:06.002Z,3487.50
2019-04-01T09:54:06.068Z,3633.75
2019-04-01T09:55:06.473Z,3701.25
2019-04-01T09:56:05.985Z,3690.00
2019-04-01T09:57:17.247Z,3628.12
2019-04-01T09:58:06.952Z,3549.38
2019-04-01T09:59:05.945Z,3279.38
2019-04-01T10:00:05.935Z,3391.88
2019-04-01T10:01:05.966Z,3538.12
2019-04-01T10:02:05.927Z,3436.88
2019-04-01T10:03:05.942Z,3555.00
2019-04-01T10:04:05.906Z,3054.38
2019-04-01T10:05:05.915Z,2576.25
2019-04-01T10:06:05.923Z,2480.62
2019-04-01T10:07:05.921Z,2514.38
2019-04-01T10:08:05.879Z,2773.12
2019-04-01T10:09:05.856Z,3127.50
2019-04-01T10:10:05.851Z,3526.88
2019-04-01T10:11:05.840Z,3690.00
2019-04-01T10:12:05.914Z,3639.38
2019-04-01T10:13:05.870Z,3718.12
2019-04-01T10:14:05.834Z,3684.38
2019-04-01T10:15:05.846Z,3330.00
2019-04-01T10:16:05.834Z,2880.00
2019-04-01T10:17:05.872Z,2818.12
2019-04-01T10:18:05.820Z,2936.25
2019-04-01T10:19:05.832Z,3048.75
2019-04-01T10:20:05.766Z,3037.50
2019-04-01T10:21:05.766Z,3099.38
2019-04-01T10:22:05.748Z,3015.00
2019-04-01T10:23:05.784Z,2559.38
2019-04-01T10:24:05.728Z,2295.00
2019-04-01T10:25:05.727Z,2221.88
2019-04-01T10:26:05.715Z,1355.62
2019-04-01T10:27:05.707Z,826.88
2019-04-01T10:28:05.722Z,765.00
2019-04-01T10:29:05.681Z,725.62
2019-04-01T10:30:05.676Z,691.88
2019-04-01T10:31:05.661Z,663.75
2019-04-01T10:32:05.652Z,630.00
2019-04-01T10:33:05.669Z,596.25
2019-04-01T10:34:05.660Z,573.75
2019-04-01T10:35:05.630Z,540.00
2019-04-01T10:36:05.622Z,528.75
2019-04-01T10:37:05.609Z,523.12
2019-04-01T10:38:05.624Z,506.25
2019-04-01T10:39:05.589Z,495.00
2019-04-01T10:40:05.588Z,472.50
2019-04-01T10:41:05.563Z,450.00
2019-04-01T10:42:05.552Z,433.12
2019-04-01T10:43:05.541Z,399.38
2019-04-01T10:44:05.553Z,371.25
2019-04-01T10:45:05.551Z,360.00
2019-04-01T10:46:05.515Z,354.38
2019-04-01T10:47:05.524Z,365.62
2019-04-01T10:48:05.519Z,348.75
2019-04-01T10:49:05.504Z,343.12
2019-04-01T10:50:05.525Z,337.50
2019-04-01T10:51:05.502Z,331.88
2019-04-01T10:52:05.463Z,326.25
2019-04-01T10:53:05.491Z,326.25
2019-04-01T10:54:05.463Z,320.62
2019-04-01T10:55:05.499Z,315.00
2019-04-01T10:56:05.411Z,315.00
2019-04-01T10:57:05.447Z,309.38
2019-04-01T10:58:05.394Z,309.38
2019-04-01T10:59:05.463Z,303.75
2019-04-01T11:00:05.417Z,298.12
2019-04-01T11:01:05.429Z,298.12
2019-04-01T11:02:05.368Z,298.12
2019-04-01T11:03:06.194Z,298.12
2019-04-01T11:04:05.375Z,298.12
2019-04-01T11:05:05.368Z,298.12
2019-04-01T11:06:05.321Z,292.50
2019-04-01T11:07:05.315Z,292.50
2019-04-01T11:08:05.339Z,286.88
2019-04-01T11:09:05.322Z,286.88
2019-04-01T11:10:05.260Z,286.88
2019-04-01T11:11:05.256Z,286.88
2019-04-01T11:12:05.270Z,281.25
2019-04-01T11:13:05.223Z,281.25
2019-04-01T11:14:05.220Z,281.25
2019-04-01T11:15:05.203Z,275.62
2019-04-01T11:16:05.189Z,275.62
2019-04-01T11:17:05.197Z,275.62
2019-04-01T11:18:05.207Z,275.62
2019-04-01T11:19:05.177Z,275.62
2019-04-01T11:20:05.154Z,270.00
2019-04-01T11:21:05.455Z,270.00
2019-04-01T11:22:05.134Z,264.38
2019-04-01T11:23:05.410Z,264.38
2019-04-01T11:24:07.584Z,264.38
2019-04-01T11:25:05.095Z,258.75
2019-04-01T11:26:05.086Z,258.75
2019-04-01T11:27:05.071Z,253.12
2019-04-01T11:28:05.096Z,253.12
2019-04-01T11:29:05.236Z,253.12
2019-04-01T11:30:05.049Z,247.50
2019-04-01T11:31:05.027Z,247.50
2019-04-01T11:32:05.078Z,241.88
2019-04-01T11:33:07.670Z,241.88
2019-04-01T11:34:05.054Z,241.88
2019-04-01T11:35:04.999Z,241.88
2019-04-01T11:36:05.015Z,236.25
2019-04-01T11:37:04.990Z,236.25
2019-04-01T11:38:04.971Z,236.25
2019-04-01T11:39:05.338Z,230.62
2019-04-01T11:40:04.964Z,230.62
2019-04-01T11:41:04.923Z,230.62
2019-04-01T11:42:04.927Z,225.00
2019-04-01T11:43:05.374Z,225.00
2019-04-01T11:44:04.947Z,225.00
2019-04-01T11:45:05.939Z,225.00
2019-04-01T11:46:04.965Z,225.00
2019-04-01T11:47:04.877Z,225.00
2019-04-01T11:48:04.903Z,225.00
2019-04-01T11:49:04.880Z,219.38
2019-04-01T11:50:04.876Z,219.38
2019-04-01T11:51:04.844Z,219.38
2019-04-01T11:52:04.847Z,219.38
2019-04-01T11:53:04.797Z,213.75
2019-04-01T11:54:08.017Z,213.75
2019-04-01T11:55:06.656Z,213.75
2019-04-01T11:56:04.760Z,213.75
2019-04-01T11:57:04.749Z,208.12
2019-04-01T11:58:04.750Z,208.12
2019-04-01T11:59:04.734Z,208.12
2019-04-01T12:00:04.751Z,208.12
2019-04-01T12:01:04.708Z,208.12
2019-04-01T12:02:04.696Z,208.12
2019-04-01T12:03:04.685Z,208.12
2019-04-01T12:04:04.685Z,202.50
2019-04-01T12:05:04.691Z,202.50
2019-04-01T12:06:04.653Z,202.50
2019-04-01T12:07:04.639Z,202.50
2019-04-01T12:08:04.626Z,202.50
2019-04-01T12:09:04.621Z,202.50
2019-04-01T12:10:07.500Z,202.50
2019-04-01T12:11:04.620Z,202.50
2019-04-01T12:12:04.590Z,202.50
2019-04-01T12:13:04.581Z,202.50
2019-04-01T12:14:05.180Z,196.88
2019-04-01T12:15:04.554Z,196.88
2019-04-01T12:16:04.569Z,196.88
2019-04-01T12:17:04.537Z,196.88
2019-04-01T12:18:04.524Z,196.88
2019-04-01T12:19:04.506Z,196.88
2019-04-01T12:20:04.495Z,196.88
2019-04-01T12:21:04.510Z,196.88
2019-04-01T12:22:04.479Z,196.88
2019-04-01T12:23:04.467Z,196.88
2019-04-01T12:24:04.458Z,196.88
2019-04-01T12:25:04.464Z,196.88
2019-04-01T12:26:15.156Z,191.25
2019-04-01T12:27:05.458Z,191.25
2019-04-01T12:28:04.409Z,191.25
2019-04-01T12:29:04.407Z,191.25
2019-04-01T12:30:04.393Z,191.25
2019-04-01T12:31:04.372Z,191.25
2019-04-01T12:32:04.371Z,191.25
2019-04-01T12:33:04.378Z,191.25
2019-04-01T12:34:04.350Z,191.25
2019-04-01T12:35:04.338Z,191.25
2019-04-01T12:36:04.326Z,185.62
2019-04-01T12:37:04.310Z,185.62
2019-04-01T12:38:04.322Z,185.62
2019-04-01T12:39:04.291Z,185.62
2019-04-01T12:40:04.278Z,185.62
2019-04-01T12:41:04.274Z,185.62
2019-04-01T12:42:04.262Z,185.62
2019-04-01T12:43:04.282Z,185.62
2019-04-01T12:44:04.242Z,185.62
2019-04-01T12:45:04.227Z,185.62
2019-04-01T12:46:04.212Z,185.62
2019-04-01T12:47:04.216Z,185.62